Time;durP1;ratioP1;P1;durP2;ratioP2;P2;SDS_P1;SDS_P2;PMS_P1;PMS_P2;Temp;Humidity;BMP_temperature;BMP_pressure;BME280_temperature;BME280_humidity;BME280_pressure;Samples;Min_cycle;Max_cycle;Signal;HPM_P1;HPM_P2
2024/01/12 00:01:53;;;;;;;4.37;3.97;;;0.60;99.90;;;;;;7398724;19;20130;-78
2024/01/12 00:04:19;;;;;;;4.33;3.47;;;0.50;99.90;;;;;;7397759;19;20198;-79
2024/01/12 00:06:46;;;;;;;3.83;3.53;;;0.70;99.90;;;;;;7397382;19;20204;-78
2024/01/12 00:09:12;;;;;;;3.37;3.00;;;0.70;99.90;;;;;;7397295;19;20207;-79
2024/01/12 00:11:38;;;;;;;3.23;2.70;;;0.70;99.90;;;;;;7394537;19;20539;-79
2024/01/12 00:14:03;;;;;;;5.27;3.50;;;0.80;99.90;;;;;;7396362;19;20155;-79
2024/01/12 00:16:29;;;;;;;3.27;2.63;;;0.70;99.90;;;;;;7397249;19;20150;-79
2024/01/12 00:18:55;;;;;;;5.67;4.50;;;0.70;99.90;;;;;;7393265;19;20202;-80
2024/01/12 00:21:20;;;;;;;4.57;3.83;;;0.80;99.90;;;;;;7396810;19;20127;-80
2024/01/12 00:23:47;;;;;;;5.83;3.87;;;0.90;99.90;;;;;;7393027;19;20154;-78
2024/01/12 00:26:14;;;;;;;4.33;2.73;;;0.90;99.90;;;;;;7395339;19;20151;-77
2024/01/12 00:28:39;;;;;;;4.43;4.00;;;0.90;99.90;;;;;;7396381;19;20130;-78
2024/01/12 00:31:05;;;;;;;7.70;4.93;;;0.80;99.90;;;;;;7395841;19;20438;-78
2024/01/12 00:33:31;;;;;;;3.40;3.10;;;0.80;99.90;;;;;;7392904;19;20146;-79
2024/01/12 00:35:57;;;;;;;5.60;3.60;;;0.80;99.90;;;;;;7395399;19;20131;-79
2024/01/12 00:38:22;;;;;;;2.80;2.60;;;0.80;99.90;;;;;;7393557;19;20138;-79
2024/01/12 00:40:48;;;;;;;3.13;2.43;;;0.80;99.90;;;;;;7394972;19;20942;-77
2024/01/12 00:43:14;;;;;;;3.90;3.40;;;0.80;99.90;;;;;;7394688;19;20154;-77
2024/01/12 00:45:39;;;;;;;4.07;3.20;;;0.70;99.90;;;;;;7396457;19;20165;-76
2024/01/12 00:48:05;;;;;;;2.80;2.60;;;0.70;99.90;;;;;;7393108;19;20213;-78
2024/01/12 00:50:31;;;;;;;3.00;2.43;;;0.70;99.90;;;;;;7392940;19;20888;-79
2024/01/12 00:52:58;;;;;;;4.37;3.40;;;0.70;99.90;;;;;;7392400;19;20150;-79
2024/01/12 00:55:25;;;;;;;2.50;2.30;;;0.70;99.90;;;;;;7390934;19;20218;-79
2024/01/12 00:57:51;;;;;;;5.00;1.77;;;0.70;99.90;;;;;;7393333;19;20158;-79
2024/01/12 01:00:16;;;;;;;2.70;2.50;;;0.40;99.90;;;;;;7392003;19;20143;-79
2024/01/12 01:02:42;;;;;;;2.10;2.00;;;0.40;99.90;;;;;;7393623;19;20617;-79
2024/01/12 01:05:08;;;;;;;2.20;2.00;;;0.40;99.90;;;;;;7390412;19;20147;-80
2024/01/12 01:07:34;;;;;;;2.87;2.50;;;0.50;99.90;;;;;;7396103;19;20156;-77
2024/01/12 01:10:00;;;;;;;3.27;2.33;;;0.60;99.90;;;;;;7391093;19;20572;-79
2024/01/12 01:12:26;;;;;;;5.47;3.03;;;0.40;99.90;;;;;;7392297;19;20142;-78
2024/01/12 01:14:52;;;;;;;3.90;2.77;;;0.20;99.90;;;;;;7392507;19;20151;-79
2024/01/12 01:17:17;;;;;;;4.47;3.10;;;0.10;99.90;;;;;;7394581;19;20299;-79
2024/01/12 01:19:43;;;;;;;6.70;2.97;;;0.20;99.90;;;;;;7387299;19;20194;-80
2024/01/12 01:22:09;;;;;;;2.13;1.93;;;-0.50;99.90;;;;;;7394170;19;20172;-80
2024/01/12 01:24:36;;;;;;;6.53;3.63;;;-0.20;99.90;;;;;;7394500;19;20602;-79
2024/01/12 01:27:02;;;;;;;4.70;2.20;;;-0.20;99.90;;;;;;7390797;19;20154;-80
2024/01/12 01:29:28;;;;;;;9.30;3.13;;;0.00;99.90;;;;;;7390794;19;20157;-78
2024/01/12 01:31:54;;;;;;;6.30;3.80;;;0.10;99.90;;;;;;7392618;19;20159;-78
2024/01/12 01:34:19;;;;;;;4.57;2.30;;;-0.10;99.90;;;;;;7393865;19;20139;-78
2024/01/12 01:36:45;;;;;;;2.47;2.27;;;0.10;99.90;;;;;;7392080;19;20223;-79
2024/01/12 01:39:11;;;;;;;4.30;3.67;;;0.20;99.90;;;;;;7392129;19;20483;-79
2024/01/12 01:41:39;;;;;;;3.33;3.07;;;0.30;99.90;;;;;;7392488;19;20146;-81
2024/01/12 01:44:05;;;;;;;4.33;3.93;;;0.40;99.90;;;;;;7392778;19;20130;-77
2024/01/12 01:46:31;;;;;;;3.70;3.37;;;0.40;99.90;;;;;;7392615;19;20154;-77
2024/01/12 01:48:57;;;;;;;3.97;3.07;;;0.40;99.90;;;;;;7388873;19;20154;-79
2024/01/12 01:51:24;;;;;;;4.70;3.60;;;0.40;99.90;;;;;;7393009;19;20151;-79
2024/01/12 01:53:50;;;;;;;2.83;2.37;;;0.50;99.90;;;;;;7391384;19;20139;-79
2024/01/12 01:56:16;;;;;;;3.20;2.90;;;0.50;99.90;;;;;;7394974;19;20150;-76
2024/01/12 01:58:43;;;;;;;5.27;2.67;;;0.50;99.90;;;;;;7390651;19;20490;-79
2024/01/12 02:01:10;;;;;;;2.80;2.60;;;0.50;99.90;;;;;;7392785;19;20182;-81
2024/01/12 02:03:38;;;;;;;5.27;3.53;;;0.50;99.90;;;;;;7392354;19;21222;-80
2024/01/12 02:06:05;;;;;;;3.30;3.00;;;0.50;99.90;;;;;;7391751;19;20139;-77
2024/01/12 02:08:31;;;;;;;3.23;2.73;;;0.40;99.90;;;;;;7392854;19;20587;-79
2024/01/12 02:10:56;;;;;;;2.83;2.43;;;0.40;99.90;;;;;;7391569;19;20146;-80
2024/01/12 02:13:22;;;;;;;4.77;2.00;;;0.50;99.90;;;;;;7388895;19;20150;-78
2024/01/12 02:15:49;;;;;;;3.43;2.80;;;0.40;99.90;;;;;;7391827;19;20625;-75
2024/01/12 02:18:15;;;;;;;4.43;3.63;;;0.40;99.90;;;;;;7391182;19;20134;-80
2024/01/12 02:20:41;;;;;;;3.63;3.27;;;0.40;99.90;;;;;;7389339;19;20155;-79
2024/01/12 02:23:07;;;;;;;3.83;2.90;;;0.40;99.90;;;;;;7391283;19;20143;-80
2024/01/12 02:25:33;;;;;;;3.07;2.77;;;0.40;99.90;;;;;;7391739;19;20166;-80
2024/01/12 02:27:59;;;;;;;2.70;2.47;;;0.40;99.90;;;;;;7391260;19;20580;-80
2024/01/12 02:30:25;;;;;;;2.40;2.30;;;0.40;99.90;;;;;;7389218;19;20166;-80
2024/01/12 02:32:50;;;;;;;2.83;2.63;;;0.40;99.90;;;;;;7389686;19;20166;-79
2024/01/12 02:35:16;;;;;;;5.03;2.83;;;0.40;99.90;;;;;;7389650;19;20130;-79
2024/01/12 02:37:42;;;;;;;4.87;2.47;;;0.40;99.90;;;;;;7391662;19;20131;-79
2024/01/12 02:40:08;;;;;;;2.87;2.33;;;0.40;99.90;;;;;;7389331;19;20867;-80
2024/01/12 02:42:34;;;;;;;2.90;2.20;;;0.30;99.90;;;;;;7389801;19;20649;-78
2024/01/12 02:44:59;;;;;;;3.07;2.27;;;0.40;99.90;;;;;;7389835;19;20131;-80
2024/01/12 02:47:25;;;;;;;3.60;1.83;;;0.30;99.90;;;;;;7388631;19;20201;-79
2024/01/12 02:49:51;;;;;;;3.53;3.23;;;0.30;99.90;;;;;;7386299;19;20178;-80
2024/01/12 02:52:16;;;;;;;3.17;2.70;;;0.40;99.90;;;;;;7387134;19;20142;-75
2024/01/12 02:54:42;;;;;;;3.27;2.97;;;0.40;99.90;;;;;;7391194;19;20154;-79
2024/01/12 02:57:11;;;;;;;5.93;4.50;;;0.40;99.90;;;;;;7387520;19;20160;-77
2024/01/12 02:59:37;;;;;;;4.67;4.20;;;0.30;99.90;;;;;;7390320;19;20131;-80
2024/01/12 03:02:03;;;;;;;4.23;3.83;;;0.20;99.90;;;;;;7388613;19;20123;-80
2024/01/12 03:04:29;;;;;;;8.70;4.97;;;0.20;99.90;;;;;;7391153;19;20171;-79
2024/01/12 03:06:56;;;;;;;2.97;2.77;;;0.20;99.90;;;;;;7389524;19;20138;-78
2024/01/12 03:09:23;;;;;;;3.93;3.53;;;0.10;99.90;;;;;;7382860;19;20138;-79
2024/01/12 03:11:48;;;;;;;5.73;4.27;;;-0.40;99.90;;;;;;7387414;19;20205;-80
2024/01/12 03:14:14;;;;;;;2.43;2.23;;;-0.30;99.90;;;;;;7391351;19;21215;-80
2024/01/12 03:16:40;;;;;;;6.20;3.73;;;-0.10;99.90;;;;;;7390173;19;20142;-78
2024/01/12 03:19:05;;;;;;;5.53;3.47;;;0.20;99.90;;;;;;7390486;19;20612;-79
2024/01/12 03:21:31;;;;;;;7.73;3.20;;;0.20;99.90;;;;;;7387568;19;20134;-79
2024/01/12 03:23:57;;;;;;;4.37;3.13;;;-0.20;99.90;;;;;;7388142;19;20142;-79
2024/01/12 03:26:23;;;;;;;3.73;3.23;;;0.00;99.90;;;;;;7388459;19;20153;-77
2024/01/12 03:28:48;;;;;;;6.53;5.00;;;-0.30;99.90;;;;;;7388420;19;20164;-80
2024/01/12 03:31:14;;;;;;;5.20;2.97;;;-0.30;99.90;;;;;;7390081;19;20146;-79
2024/01/12 03:33:40;;;;;;;5.07;2.40;;;-0.30;99.90;;;;;;7388088;19;20150;-79
2024/01/12 03:36:07;;;;;;;6.30;4.97;;;-0.20;99.90;;;;;;7388796;19;20147;-79
2024/01/12 03:38:33;;;;;;;5.93;3.57;;;-0.10;99.90;;;;;;7389057;19;20551;-78
2024/01/12 03:40:58;;;;;;;5.17;4.10;;;-0.20;99.90;;;;;;7387815;19;20154;-78
2024/01/12 03:43:24;;;;;;;2.90;2.20;;;-0.10;99.90;;;;;;7388964;19;20203;-79
2024/01/12 03:45:50;;;;;;;3.33;3.03;;;-0.50;99.90;;;;;;7389526;19;20134;-79
2024/01/12 03:48:16;;;;;;;2.63;2.43;;;-0.50;99.90;;;;;;7390159;19;20150;-80
2024/01/12 03:50:41;;;;;;;10.17;3.40;;;-0.20;99.90;;;;;;7386140;19;20138;-79
2024/01/12 03:53:07;;;;;;;3.13;2.80;;;-0.30;99.90;;;;;;7387300;19;20158;-80
2024/01/12 03:55:33;;;;;;;4.20;3.20;;;0.00;99.90;;;;;;7387450;19;20159;-79
2024/01/12 03:57:59;;;;;;;4.37;3.53;;;-0.30;99.90;;;;;;7389488;19;20502;-78
2024/01/12 04:00:24;;;;;;;4.83;3.77;;;-0.20;99.90;;;;;;7388757;19;20148;-80
2024/01/12 04:02:50;;;;;;;4.13;3.83;;;0.00;99.90;;;;;;7387963;19;20604;-79
2024/01/12 04:05:16;;;;;;;4.57;3.50;;;-0.10;99.90;;;;;;7387506;19;20181;-80
2024/01/12 04:07:42;;;;;;;4.73;4.07;;;-0.30;99.90;;;;;;7386790;19;20142;-80
2024/01/12 04:10:08;;;;;;;6.67;4.57;;;-0.50;99.90;;;;;;7388752;19;20142;-80
2024/01/12 04:12:34;;;;;;;5.70;5.17;;;-0.60;99.90;;;;;;7386193;19;20140;-80
2024/01/12 04:15:00;;;;;;;4.23;3.87;;;-0.60;99.90;;;;;;7387942;19;20131;-78
2024/01/12 04:17:25;;;;;;;5.93;3.20;;;-0.50;99.90;;;;;;7387893;19;20170;-79
2024/01/12 04:19:51;;;;;;;7.27;5.77;;;-0.40;99.90;;;;;;7388435;19;20164;-78
2024/01/12 04:22:17;;;;;;;5.17;3.10;;;-0.20;99.90;;;;;;7388650;19;20166;-78
2024/01/12 04:24:42;;;;;;;4.37;3.40;;;-0.10;99.90;;;;;;7387819;19;20538;-79
2024/01/12 04:27:08;;;;;;;3.20;2.90;;;0.00;99.90;;;;;;7389941;19;20139;-78
2024/01/12 04:29:34;;;;;;;4.13;3.70;;;0.00;99.90;;;;;;7388042;19;20135;-79
2024/01/12 04:32:00;;;;;;;2.00;1.87;;;0.00;99.90;;;;;;7394110;19;20205;-79
2024/01/12 04:34:26;;;;;;;4.17;2.90;;;-0.10;99.90;;;;;;7392310;19;20172;-79
2024/01/12 04:36:54;;;;;;;3.50;3.20;;;0.00;99.90;;;;;;7395841;19;20151;-80
2024/01/12 04:39:20;;;;;;;5.03;4.40;;;0.00;99.90;;;;;;7391932;19;20197;-78
2024/01/12 04:41:46;;;;;;;5.53;3.70;;;0.00;99.90;;;;;;7394649;19;20531;-78
2024/01/12 04:44:12;;;;;;;4.17;3.77;;;0.00;99.90;;;;;;7393050;19;20155;-79
2024/01/12 04:46:37;;;;;;;4.17;3.63;;;0.00;99.90;;;;;;7396563;19;20174;-79
2024/01/12 04:49:03;;;;;;;4.93;3.63;;;0.00;99.90;;;;;;7392982;19;20173;-79
2024/01/12 04:51:29;;;;;;;3.17;2.67;;;-0.10;99.90;;;;;;7394905;19;20139;-81
2024/01/12 04:53:55;;;;;;;4.10;2.97;;;0.00;99.90;;;;;;7395456;19;20139;-80
2024/01/12 04:56:24;;;;;;;4.93;3.20;;;-0.90;99.90;;;;;;7395563;19;20159;-80
2024/01/12 04:58:50;;;;;;;14.17;3.13;;;-1.20;99.90;;;;;;7392474;19;20135;-80
2024/01/12 05:01:16;;;;;;;5.60;4.20;;;-1.00;99.90;;;;;;7395435;19;20138;-80
2024/01/12 05:03:44;;;;;;;5.20;4.17;;;-0.70;99.90;;;;;;7391763;19;20634;-82
2024/01/12 05:06:10;;;;;;;8.30;5.87;;;-0.30;99.90;;;;;;7392519;19;20139;-79
2024/01/12 05:08:37;;;;;;;4.10;3.47;;;-0.30;99.90;;;;;;7396297;19;20577;-82
2024/01/12 05:11:03;;;;;;;4.27;3.43;;;-0.40;99.90;;;;;;7392579;19;20475;-81
2024/01/12 05:13:29;;;;;;;2.53;2.33;;;-0.80;99.90;;;;;;7391449;19;20149;-81
2024/01/12 05:15:55;;;;;;;5.30;3.23;;;-1.50;99.90;;;;;;7393256;19;20568;-82
2024/01/12 05:18:21;;;;;;;5.30;4.60;;;-1.10;99.90;;;;;;7394803;19;20149;-78
2024/01/12 05:20:47;;;;;;;4.47;3.63;;;-0.70;99.90;;;;;;7394348;19;20134;-82
2024/01/12 05:23:13;;;;;;;2.93;2.70;;;-0.70;99.90;;;;;;7392808;19;20139;-79
2024/01/12 05:25:39;;;;;;;3.83;3.57;;;-0.40;99.90;;;;;;7394732;19;20146;-81
2024/01/12 05:28:04;;;;;;;4.70;4.23;;;-0.30;99.90;;;;;;7391373;19;20142;-82
2024/01/12 05:30:30;;;;;;;4.20;3.60;;;-0.20;99.90;;;;;;7392018;19;20595;-80
2024/01/12 05:32:56;;;;;;;3.37;3.07;;;-0.10;99.90;;;;;;7392996;19;20142;-80
2024/01/12 05:35:25;;;;;;;4.33;3.60;;;-0.10;99.90;;;;;;7393214;19;20497;-80
2024/01/12 05:37:51;;;;;;;3.67;3.37;;;-0.10;99.90;;;;;;7391743;19;20148;-81
2024/01/12 05:40:18;;;;;;;4.80;4.00;;;-0.20;99.90;;;;;;7390713;19;20135;-76
2024/01/12 05:42:44;;;;;;;6.13;4.63;;;-0.30;99.90;;;;;;7393360;19;20143;-80
2024/01/12 05:45:10;;;;;;;3.80;3.50;;;-0.50;99.90;;;;;;7392596;19;20156;-80
2024/01/12 05:47:36;;;;;;;6.67;4.40;;;-0.50;99.90;;;;;;7391292;19;20138;-82
2024/01/12 05:50:03;;;;;;;2.30;2.20;;;-0.60;99.90;;;;;;7391136;19;20215;-81
2024/01/12 05:52:29;;;;;;;3.90;2.70;;;-0.90;99.90;;;;;;7391163;19;20147;-79
2024/01/12 05:54:55;;;;;;;2.23;1.97;;;-1.00;99.90;;;;;;7391725;19;20254;-81
2024/01/12 05:57:23;;;;;;;4.77;3.63;;;-0.90;99.90;;;;;;7393216;19;20154;-80
2024/01/12 05:59:49;;;;;;;4.10;3.80;;;-0.90;99.90;;;;;;7391420;19;20147;-79
2024/01/12 06:02:15;;;;;;;4.07;2.63;;;-1.60;99.90;;;;;;7390373;19;20236;-81
2024/01/12 06:04:41;;;;;;;6.63;4.50;;;-2.10;99.90;;;;;;7388091;19;20196;-80
2024/01/12 06:07:07;;;;;;;4.90;3.47;;;-2.00;99.90;;;;;;7391240;19;20632;-80
2024/01/12 06:09:32;;;;;;;4.20;3.80;;;-1.70;99.90;;;;;;7391756;19;20151;-81
2024/01/12 06:11:58;;;;;;;3.80;3.40;;;-1.20;99.90;;;;;;7395483;19;20143;-79
2024/01/12 06:14:24;;;;;;;4.97;3.17;;;-0.90;99.90;;;;;;7391638;19;20137;-80
2024/01/12 06:16:50;;;;;;;3.07;2.87;;;-0.60;99.90;;;;;;7389442;19;20174;-79
2024/01/12 06:19:16;;;;;;;1.57;1.47;;;-0.50;99.90;;;;;;7388824;19;20506;-78
2024/01/12 06:21:41;;;;;;;1.90;1.57;;;-0.40;99.90;;;;;;7392229;19;20131;-79
2024/01/12 06:24:08;;;;;;;5.83;3.53;;;-0.40;99.90;;;;;;7388980;19;20159;-79
2024/01/12 06:26:34;;;;;;;1.60;1.43;;;-0.30;99.90;;;;;;7389773;19;20206;-77
2024/01/12 06:29:00;;;;;;;1.60;1.50;;;-0.30;99.90;;;;;;7388583;19;20167;-78
2024/01/12 06:31:31;;;;;;;4.57;3.63;;;-1.10;99.90;;;;;;7386809;19;20150;-77
2024/01/12 06:33:56;;;;;;;3.30;3.07;;;-1.00;99.90;;;;;;7393276;19;20131;-76
2024/01/12 06:36:22;;;;;;;4.37;3.67;;;-0.70;99.90;;;;;;7387229;19;20226;-78
2024/01/12 06:38:48;;;;;;;7.30;4.10;;;-0.50;99.90;;;;;;7389394;19;20561;-78
2024/01/12 06:41:14;;;;;;;3.00;2.77;;;-0.70;99.90;;;;;;7390317;19;20138;-77
2024/01/12 06:43:39;;;;;;;3.23;2.30;;;-1.00;99.90;;;;;;7391137;19;20126;-77
2024/01/12 06:46:06;;;;;;;4.53;2.97;;;-1.10;99.90;;;;;;7389974;19;20186;-76
2024/01/12 06:48:31;;;;;;;7.00;2.67;;;-1.00;99.90;;;;;;7388085;19;20159;-78
2024/01/12 06:50:57;;;;;;;2.30;2.10;;;-0.70;99.90;;;;;;7387739;19;20159;-79
2024/01/12 06:53:23;;;;;;;7.47;5.20;;;-0.60;99.90;;;;;;7388023;19;20133;-77
2024/01/12 06:55:48;;;;;;;5.53;3.17;;;-0.40;99.90;;;;;;7389748;19;20154;-77
2024/01/12 06:58:14;;;;;;;7.13;5.17;;;-0.30;99.90;;;;;;7386609;19;20153;-76
2024/01/12 07:00:40;;;;;;;4.40;2.73;;;-0.30;99.90;;;;;;7388883;19;20142;-78
2024/01/12 07:03:06;;;;;;;2.70;2.47;;;-0.30;99.90;;;;;;7388031;19;20138;-78
2024/01/12 07:05:32;;;;;;;3.63;3.30;;;-0.30;99.90;;;;;;7388606;19;20636;-77
2024/01/12 07:07:58;;;;;;;7.43;3.13;;;-0.30;99.90;;;;;;7390607;19;20138;-78
2024/01/12 07:10:24;;;;;;;4.20;2.87;;;-0.40;99.90;;;;;;7389033;19;20135;-81
2024/01/12 07:12:53;;;;;;;3.37;3.17;;;-0.30;99.90;;;;;;7384953;19;20145;-79
2024/01/12 07:15:20;;;;;;;2.30;2.10;;;-0.20;99.90;;;;;;7390718;19;20135;-78
2024/01/12 07:17:49;;;;;;;1.83;1.73;;;-0.20;99.90;;;;;;7390373;19;20149;-78
2024/01/12 07:20:15;;;;;;;5.07;3.37;;;-0.30;99.90;;;;;;7388334;19;20149;-77
2024/01/12 07:22:42;;;;;;;3.80;3.43;;;-0.40;99.90;;;;;;7389518;19;20224;-76
2024/01/12 07:25:08;;;;;;;2.70;2.37;;;-0.40;99.90;;;;;;7390916;19;20135;-77
2024/01/12 07:27:33;;;;;;;4.03;3.47;;;-0.40;99.90;;;;;;7388582;19;20150;-75
2024/01/12 07:29:59;;;;;;;3.97;3.63;;;-0.40;99.90;;;;;;7390954;19;20130;-76
2024/01/12 07:32:25;;;;;;;3.97;3.57;;;-0.30;99.90;;;;;;7388213;19;20150;-76
2024/01/12 07:34:50;;;;;;;4.27;3.47;;;-0.20;99.90;;;;;;7393127;19;20140;-78
2024/01/12 07:37:16;;;;;;;3.43;3.10;;;-0.20;99.90;;;;;;7388656;19;20617;-76
2024/01/12 07:39:42;;;;;;;6.47;3.87;;;-0.20;99.90;;;;;;7387858;19;20137;-78
2024/01/12 07:42:08;;;;;;;5.23;3.50;;;-0.10;99.90;;;;;;7387523;19;20130;-77
2024/01/12 07:44:36;;;;;;;3.47;2.77;;;-0.10;99.90;;;;;;7390151;19;20147;-77
2024/01/12 07:47:02;;;;;;;3.33;2.77;;;-0.10;99.90;;;;;;7389313;19;20159;-77
2024/01/12 07:49:27;;;;;;;4.07;3.67;;;0.00;99.90;;;;;;7385858;19;20507;-76
2024/01/12 07:51:53;;;;;;;3.47;3.17;;;-0.10;99.90;;;;;;7387717;19;20608;-77
2024/01/12 07:54:19;;;;;;;3.50;2.97;;;-0.10;99.90;;;;;;7389404;19;20150;-77
2024/01/12 07:56:44;;;;;;;5.53;3.17;;;-0.10;99.90;;;;;;7388556;19;20150;-79
2024/01/12 07:59:11;;;;;;;3.73;3.37;;;-0.10;99.90;;;;;;7387583;19;20138;-77
2024/01/12 08:01:40;;;;;;;6.80;3.30;;;-0.40;99.90;;;;;;7391751;19;20158;-77
2024/01/12 08:04:06;;;;;;;4.30;3.47;;;-0.30;99.90;;;;;;7389807;19;20607;-77
2024/01/12 08:06:32;;;;;;;5.40;3.80;;;-0.40;99.90;;;;;;7396397;19;20162;-77
2024/01/12 08:08:58;;;;;;;7.97;2.97;;;-0.20;99.90;;;;;;7395541;19;20130;-77
2024/01/12 08:11:24;;;;;;;5.73;3.40;;;-0.10;99.90;;;;;;7395192;19;20155;-76
2024/01/12 08:13:49;;;;;;;4.93;3.10;;;0.00;99.90;;;;;;7393867;19;20214;-79
2024/01/12 08:16:15;;;;;;;6.53;3.93;;;-0.20;99.90;;;;;;7394324;19;20130;-78
2024/01/12 08:18:41;;;;;;;3.67;2.73;;;-0.20;99.90;;;;;;7395642;19;20146;-78
2024/01/12 08:21:06;;;;;;;4.30;3.87;;;-0.10;99.90;;;;;;7392640;19;20604;-78
2024/01/12 08:23:33;;;;;;;2.57;2.13;;;-0.20;99.90;;;;;;7394937;19;20151;-77
2024/01/12 08:25:59;;;;;;;6.00;3.67;;;-0.50;99.90;;;;;;7393762;19;20222;-78
2024/01/12 08:28:25;;;;;;;3.33;3.00;;;-0.30;99.90;;;;;;7394688;19;20154;-78
2024/01/12 08:30:50;;;;;;;6.60;3.20;;;-0.10;99.90;;;;;;7392728;19;20154;-79
2024/01/12 08:33:17;;;;;;;3.97;3.57;;;0.00;99.90;;;;;;7392366;19;20481;-78
2024/01/12 08:35:43;;;;;;;2.60;2.40;;;-0.10;99.90;;;;;;7394659;19;20135;-78
2024/01/12 08:38:08;;;;;;;5.67;4.13;;;-0.10;99.90;;;;;;7396049;19;20147;-78
2024/01/12 08:40:34;;;;;;;5.23;3.70;;;-0.20;99.90;;;;;;7394442;19;20592;-78
2024/01/12 08:43:01;;;;;;;4.70;3.80;;;-0.10;99.90;;;;;;7394948;19;20150;-77
2024/01/12 08:45:27;;;;;;;5.93;3.97;;;-0.10;99.90;;;;;;7394580;19;20159;-79
2024/01/12 08:47:53;;;;;;;3.57;3.23;;;0.00;99.90;;;;;;7395091;19;20138;-78
2024/01/12 08:50:18;;;;;;;3.23;2.50;;;0.00;99.90;;;;;;7394312;19;20135;-79
2024/01/12 08:52:44;;;;;;;6.33;4.07;;;0.00;99.90;;;;;;7393362;19;20165;-76
2024/01/12 08:55:10;;;;;;;3.83;3.47;;;-0.10;99.90;;;;;;7392326;19;20139;-76
2024/01/12 08:57:36;;;;;;;8.57;5.40;;;0.00;99.90;;;;;;7392939;19;20222;-76
2024/01/12 09:00:06;;;;;;;6.83;5.47;;;-0.40;99.90;;;;;;7391183;19;20138;-76
2024/01/12 09:02:32;;;;;;;9.33;5.17;;;-0.30;99.90;;;;;;7393574;19;20251;-76
2024/01/12 09:04:58;;;;;;;4.83;3.40;;;-0.30;99.90;;;;;;7389133;19;20216;-78
2024/01/12 09:07:24;;;;;;;5.47;3.53;;;-0.30;99.90;;;;;;7392839;19;20194;-75
2024/01/12 09:09:49;;;;;;;9.67;4.80;;;-0.10;99.90;;;;;;7392012;19;20155;-76
2024/01/12 09:12:15;;;;;;;3.53;2.80;;;0.00;99.90;;;;;;7391843;19;20446;-78
2024/01/12 09:14:41;;;;;;;6.47;4.43;;;0.10;99.90;;;;;;7391669;19;20143;-77
2024/01/12 09:17:07;;;;;;;3.87;3.40;;;0.10;99.90;;;;;;7392081;19;20138;-76
2024/01/12 09:19:32;;;;;;;3.33;3.03;;;0.10;99.90;;;;;;7393681;19;20618;-76
2024/01/12 09:21:58;;;;;;;7.03;5.03;;;0.10;99.90;;;;;;7393845;19;20476;-76
2024/01/12 09:24:24;;;;;;;7.80;3.83;;;0.00;99.90;;;;;;7396262;19;20146;-77
2024/01/12 09:26:50;;;;;;;4.10;3.70;;;0.00;99.90;;;;;;7392914;19;20150;-76
2024/01/12 09:29:15;;;;;;;4.07;2.87;;;0.00;99.90;;;;;;7390929;19;20139;-76
2024/01/12 09:31:41;;;;;;;6.57;4.83;;;0.10;99.90;;;;;;7394114;19;20154;-78
2024/01/12 09:34:07;;;;;;;3.70;3.00;;;0.10;99.90;;;;;;7390785;19;20155;-80
2024/01/12 09:36:33;;;;;;;5.60;4.60;;;0.10;99.90;;;;;;7393158;19;20562;-79
2024/01/12 09:38:59;;;;;;;3.73;3.17;;;0.10;99.90;;;;;;7395529;19;20154;-76
2024/01/12 09:41:38;;;;;;;5.17;3.30;;;-0.30;99.90;;;;;;7397092;19;20482;-77
2024/01/12 09:44:08;;;;;;;4.20;3.73;;;-0.20;99.90;;;;;;7397158;19;20160;-76
2024/01/12 09:46:43;;;;;;;4.83;2.47;;;0.00;99.90;;;;;;7397392;19;20135;-76
2024/01/12 09:49:09;;;;;;;4.00;3.60;;;0.20;99.90;;;;;;7391356;19;20180;-77
2024/01/12 09:51:35;;;;;;;5.90;4.70;;;0.20;99.90;;;;;;7396434;19;20551;-76
2024/01/12 09:54:00;;;;;;;2.50;2.30;;;0.20;99.90;;;;;;7392316;19;20230;-77
2024/01/12 09:56:27;;;;;;;5.77;3.77;;;-0.60;99.90;;;;;;7394376;19;20258;-80
2024/01/12 09:58:53;;;;;;;4.57;3.30;;;-1.20;99.90;;;;;;7391291;19;20576;-78
2024/01/12 10:01:18;;;;;;;4.23;3.17;;;-1.30;99.90;;;;;;7392739;19;20141;-77
2024/01/12 10:03:49;;;;;;;5.47;4.20;;;-0.60;99.90;;;;;;7392112;19;20146;-79
2024/01/12 10:06:14;;;;;;;6.37;4.40;;;-0.30;99.90;;;;;;7394038;19;20135;-77
2024/01/12 10:08:40;;;;;;;4.83;4.43;;;0.10;99.90;;;;;;7391219;19;21082;-76
2024/01/12 10:11:06;;;;;;;5.03;4.10;;;0.20;99.90;;;;;;7392794;19;20234;-78
2024/01/12 10:13:32;;;;;;;3.53;3.00;;;0.50;99.90;;;;;;7389070;19;20142;-77
2024/01/12 10:15:58;;;;;;;3.30;2.60;;;0.50;99.90;;;;;;7393176;19;20583;-77
2024/01/12 10:18:24;;;;;;;5.20;4.03;;;0.40;99.90;;;;;;7393099;19;20855;-78
2024/01/12 10:20:50;;;;;;;3.17;2.97;;;0.50;99.90;;;;;;7388462;19;20180;-76
2024/01/12 10:23:22;;;;;;;5.13;4.30;;;0.60;99.90;;;;;;7388906;19;20596;-77
2024/01/12 10:26:01;;;;;;;4.17;3.73;;;0.50;99.90;;;;;;7388192;19;20142;-76
2024/01/12 10:28:29;;;;;;;4.03;3.63;;;0.60;99.90;;;;;;7390601;19;20158;-77
2024/01/12 10:30:55;;;;;;;4.47;2.97;;;0.70;99.90;;;;;;7389713;19;20134;-78
2024/01/12 10:33:22;;;;;;;3.93;3.53;;;0.80;99.90;;;;;;7388288;19;20499;-77
2024/01/12 10:35:56;;;;;;;4.27;3.83;;;0.90;99.90;;;;;;7390573;19;20210;-77
2024/01/12 10:38:24;;;;;;;4.03;3.57;;;0.80;99.90;;;;;;7392452;19;20658;-80
2024/01/12 10:40:52;;;;;;;5.97;4.10;;;0.80;99.90;;;;;;7390605;19;20162;-77
2024/01/12 10:43:20;;;;;;;2.20;2.00;;;0.80;99.90;;;;;;7390505;19;20635;-77
2024/01/12 10:45:51;;;;;;;3.07;2.73;;;0.70;99.90;;;;;;7389435;19;20153;-78
2024/01/12 10:48:22;;;;;;;3.47;3.13;;;0.80;99.90;;;;;;7389083;19;20158;-77
2024/01/12 10:50:53;;;;;;;5.37;4.37;;;0.90;99.90;;;;;;7384690;19;20679;-76
2024/01/12 10:53:37;;;;;;;4.37;3.97;;;1.00;99.90;;;;;;7390295;19;20134;-78
2024/01/12 10:56:03;;;;;;;5.47;4.23;;;1.00;99.90;;;;;;7391339;19;20145;-76
2024/01/12 10:58:29;;;;;;;3.57;3.23;;;1.10;99.90;;;;;;7391263;19;20131;-78
2024/01/12 11:00:57;;;;;;;3.80;3.43;;;1.10;99.90;;;;;;7387918;19;20150;-77
2024/01/12 11:03:23;;;;;;;3.27;2.97;;;1.20;99.90;;;;;;7389623;19;20198;-77
2024/01/12 11:05:50;;;;;;;3.47;3.00;;;1.20;99.90;;;;;;7388878;19;20162;-77
2024/01/12 11:08:19;;;;;;;4.37;3.30;;;1.20;99.90;;;;;;7386485;19;20156;-79
2024/01/12 11:10:55;;;;;;;5.10;3.77;;;1.30;99.90;;;;;;7390409;19;20151;-78
2024/01/12 11:13:22;;;;;;;9.60;4.63;;;1.40;99.90;;;;;;7391311;19;20135;-78
2024/01/12 11:15:51;;;;;;;4.63;3.40;;;1.30;99.90;;;;;;7389773;19;20138;-78
2024/01/12 11:18:17;;;;;;;4.20;3.80;;;1.20;99.90;;;;;;7393728;19;20162;-77
2024/01/12 11:20:45;;;;;;;3.83;2.67;;;1.20;99.90;;;;;;7390331;19;20142;-78
2024/01/12 11:23:14;;;;;;;3.10;2.67;;;1.20;99.90;;;;;;7389425;19;20154;-80
2024/01/12 11:25:43;;;;;;;4.17;3.80;;;1.20;99.90;;;;;;7392393;19;20134;-78
2024/01/12 11:28:09;;;;;;;3.70;2.47;;;1.40;99.90;;;;;;7392113;19;20155;-78
2024/01/12 11:30:41;;;;;;;4.40;2.97;;;1.40;99.90;;;;;;7389506;19;20491;-79
2024/01/12 11:33:08;;;;;;;3.93;3.17;;;1.40;99.90;;;;;;7388329;19;20142;-78
2024/01/12 11:35:37;;;;;;;4.10;3.13;;;1.40;99.90;;;;;;7389960;19;20146;-77
2024/01/12 11:38:09;;;;;;;4.37;4.00;;;1.50;99.90;;;;;;7390854;19;20147;-79
2024/01/12 11:40:35;;;;;;;4.43;3.80;;;1.60;99.90;;;;;;7389783;19;20153;-78
2024/01/12 11:43:03;;;;;;;4.70;3.17;;;1.80;99.90;;;;;;7392095;19;20146;-79
2024/01/12 11:45:31;;;;;;;5.20;3.63;;;1.80;99.90;;;;;;7389822;19;20152;-78
2024/01/12 11:48:01;;;;;;;3.37;2.60;;;1.90;99.90;;;;;;7390679;19;20142;-79
2024/01/12 11:50:27;;;;;;;5.63;4.13;;;1.90;99.90;;;;;;7388471;19;20163;-77
2024/01/12 11:53:00;;;;;;;3.20;2.90;;;1.50;99.90;;;;;;7389380;19;20146;-77
2024/01/12 11:55:27;;;;;;;3.23;3.00;;;1.60;99.90;;;;;;7391243;19;20570;-79
2024/01/12 11:57:54;;;;;;;2.53;2.33;;;1.90;99.90;;;;;;7389337;19;20578;-77
2024/01/12 12:00:21;;;;;;;3.47;3.17;;;2.00;99.90;;;;;;7387072;19;20151;-79
2024/01/12 12:02:48;;;;;;;3.77;3.43;;;1.80;99.90;;;;;;7389775;19;20231;-78
2024/01/12 12:05:14;;;;;;;5.10;3.53;;;1.80;99.90;;;;;;7390807;19;20463;-81
2024/01/12 12:07:40;;;;;;;3.97;3.50;;;2.00;99.90;;;;;;7389237;19;20150;-78
2024/01/12 12:10:10;;;;;;;3.13;2.73;;;2.10;99.90;;;;;;7388214;19;20142;-80
2024/01/12 12:12:37;;;;;;;3.47;3.10;;;1.90;99.90;;;;;;7386617;19;20142;-78
2024/01/12 12:15:04;;;;;;;4.57;3.07;;;2.10;99.90;;;;;;7391044;19;20149;-78
2024/01/12 12:17:31;;;;;;;4.37;3.43;;;2.20;99.90;;;;;;7389421;19;20174;-79
2024/01/12 12:19:57;;;;;;;4.70;3.77;;;2.40;99.90;;;;;;7387440;19;20637;-78
2024/01/12 12:22:24;;;;;;;4.90;4.27;;;2.50;99.90;;;;;;7388687;19;20150;-79
2024/01/12 12:24:50;;;;;;;2.93;2.70;;;2.40;99.90;;;;;;7389832;19;20511;-79
2024/01/12 12:27:17;;;;;;;4.60;3.77;;;2.30;99.90;;;;;;7390820;19;20142;-77
2024/01/12 12:29:44;;;;;;;5.40;3.80;;;2.30;99.90;;;;;;7387178;19;20518;-78
2024/01/12 12:32:12;;;;;;;3.70;3.33;;;2.40;99.90;;;;;;7387624;19;20143;-77
2024/01/12 12:34:40;;;;;;;3.87;3.17;;;2.50;99.90;;;;;;7389351;19;20141;-78
2024/01/12 12:37:13;;;;;;;4.20;3.47;;;2.50;99.90;;;;;;7388759;19;20151;-77
2024/01/12 12:39:39;;;;;;;5.80;3.73;;;2.80;99.90;;;;;;7387870;19;20506;-79
2024/01/12 12:42:08;;;;;;;4.67;4.17;;;2.60;99.90;;;;;;7391659;19;20170;-78
2024/01/12 12:44:35;;;;;;;3.17;2.70;;;2.70;99.90;;;;;;7394020;19;20143;-77
2024/01/12 12:47:04;;;;;;;4.60;3.63;;;2.70;99.90;;;;;;7387979;19;20160;-78
2024/01/12 12:49:37;;;;;;;5.23;3.07;;;2.70;99.90;;;;;;7383473;19;20537;-79